Time;durP1;ratioP1;P1;durP2;ratioP2;P2;SDS_P1;SDS_P2;PMS_P1;PMS_P2;Temp;Humidity;BMP_temperature;BMP_pressure;BME280_temperature;BME280_humidity;BME280_pressure;Samples;Min_cycle;Max_cycle;Signal;HPM_P1;HPM_P2
2023/10/06 00:01:40;;;;;;;;;;;21.00;99.90;;;;;;5012204;28;20028;-55
2023/10/06 00:04:07;;;;;;;;;;;21.00;99.90;;;;;;5007161;28;19976;-59
2023/10/06 00:06:37;;;;;;;;;;;21.10;99.90;;;;;;5010314;28;19991;-57
2023/10/06 00:09:06;;;;;;;;;;;21.10;99.90;;;;;;5007996;28;19948;-57
2023/10/06 00:11:33;;;;;;;;;;;21.00;99.90;;;;;;5009749;28;20421;-57
2023/10/06 00:14:07;;;;;;;;;;;21.00;99.90;;;;;;5010053;28;19930;-56
2023/10/06 00:16:39;;;;;;;;;;;21.00;99.90;;;;;;5008248;28;19929;-55
2023/10/06 00:19:19;;;;;;;;;;;21.00;99.90;;;;;;5004649;28;20024;-58
2023/10/06 00:21:47;;;;;;;;;;;21.10;99.90;;;;;;5007089;28;20245;-56
2023/10/06 00:24:15;;;;;;;;;;;21.10;99.90;;;;;;5004597;28;19929;-56
2023/10/06 00:26:42;;;;;;;;;;;21.00;99.90;;;;;;5012089;28;20387;-56
2023/10/06 00:29:17;;;;;;;;;;;21.00;99.90;;;;;;5006714;28;19965;-55
2023/10/06 00:31:47;;;;;;;;;;;21.10;99.90;;;;;;5009504;28;19933;-58
2023/10/06 00:34:19;;;;;;;;;;;21.00;99.90;;;;;;5007289;28;19929;-56
2023/10/06 00:36:51;;;;;;;;;;;21.10;99.90;;;;;;5007073;28;20155;-61
2023/10/06 00:39:22;;;;;;;;;;;21.00;99.90;;;;;;5008297;28;20577;-56
2023/10/06 00:41:55;;;;;;;;;;;21.00;99.90;;;;;;5010017;28;19929;-59
2023/10/06 00:44:22;;;;;;;;;;;21.00;99.90;;;;;;5010833;28;20590;-57
2023/10/06 00:46:51;;;;;;;;;;;21.00;99.90;;;;;;5013621;28;19929;-56
2023/10/06 00:49:18;;;;;;;;;;;21.00;99.90;;;;;;5008514;28;19936;-58
2023/10/06 00:51:45;;;;;;;;;;;21.00;99.90;;;;;;5012144;28;20021;-57
2023/10/06 00:54:12;;;;;;;;;;;21.00;99.90;;;;;;5008630;28;19937;-55
2023/10/06 00:56:38;;;;;;;;;;;21.10;99.90;;;;;;5011361;28;19940;-56
2023/10/06 00:59:05;;;;;;;;;;;21.00;99.90;;;;;;5008654;28;19930;-56
2023/10/06 01:01:34;;;;;;;;;;;21.00;99.90;;;;;;5010066;28;19933;-56
2023/10/06 01:04:08;;;;;;;;;;;21.00;99.90;;;;;;5010159;28;19929;-56
2023/10/06 01:06:37;;;;;;;;;;;21.00;99.90;;;;;;5010596;28;21392;-57
2023/10/06 01:09:13;;;;;;;;;;;21.00;99.90;;;;;;5009604;28;19935;-59
2023/10/06 01:11:41;;;;;;;;;;;21.00;99.90;;;;;;5014221;28;20023;-56
2023/10/06 01:14:07;;;;;;;;;;;21.00;99.90;;;;;;5007013;28;19936;-57
2023/10/06 01:16:35;;;;;;;;;;;21.00;99.90;;;;;;5013110;28;19929;-56
2023/10/06 01:19:15;;;;;;;;;;;21.00;99.90;;;;;;5010432;28;20016;-55
2023/10/06 01:21:45;;;;;;;;;;;21.00;99.90;;;;;;5011549;28;19925;-56
2023/10/06 01:24:14;;;;;;;;;;;21.00;99.90;;;;;;5009262;28;20355;-55
2023/10/06 01:26:44;;;;;;;;;;;21.00;99.90;;;;;;5011088;28;19932;-56
2023/10/06 01:29:11;;;;;;;;;;;21.00;99.90;;;;;;5010011;28;19999;-55
2023/10/06 01:31:39;;;;;;;;;;;21.00;99.90;;;;;;5009487;28;19932;-56
2023/10/06 01:34:08;;;;;;;;;;;21.00;99.90;;;;;;5012477;28;19933;-57
2023/10/06 01:36:35;;;;;;;;;;;21.00;99.90;;;;;;5017029;28;21461;-57
2023/10/06 01:39:04;;;;;;;;;;;21.00;99.90;;;;;;5012907;28;20522;-57
2023/10/06 01:41:34;;;;;;;;;;;21.00;99.90;;;;;;5010023;28;19965;-57
2023/10/06 01:44:01;;;;;;;;;;;21.00;99.90;;;;;;5011567;28;20426;-58
2023/10/06 01:46:28;;;;;;;;;;;21.00;99.90;;;;;;5009575;28;20212;-57
2023/10/06 01:48:55;;;;;;;;;;;21.00;99.90;;;;;;5009150;28;20000;-56
2023/10/06 01:51:22;;;;;;;;;;;21.00;99.90;;;;;;5008222;28;20154;-56
2023/10/06 01:53:49;;;;;;;;;;;21.00;99.90;;;;;;5007396;28;20027;-57
2023/10/06 01:56:22;;;;;;;;;;;21.00;99.90;;;;;;5014547;28;19939;-57
2023/10/06 01:58:51;;;;;;;;;;;21.00;99.90;;;;;;5009910;28;19929;-56
2023/10/06 02:01:18;;;;;;;;;;;21.00;99.90;;;;;;5009324;28;20051;-57
2023/10/06 02:03:45;;;;;;;;;;;21.00;99.90;;;;;;5010607;28;20619;-58
2023/10/06 02:06:16;;;;;;;;;;;21.00;99.90;;;;;;5009533;28;20008;-56
2023/10/06 02:08:49;;;;;;;;;;;21.00;99.90;;;;;;5011734;28;19937;-57
2023/10/06 02:11:16;;;;;;;;;;;21.00;99.90;;;;;;5007615;28;21395;-56
2023/10/06 02:13:42;;;;;;;;;;;21.00;99.90;;;;;;5010200;28;19945;-55
2023/10/06 02:16:10;;;;;;;;;;;21.00;99.90;;;;;;5008160;28;20876;-58
2023/10/06 02:18:37;;;;;;;;;;;21.00;99.90;;;;;;5006306;28;19933;-56
2023/10/06 02:21:04;;;;;;;;;;;21.00;99.90;;;;;;5019160;28;19929;-58
2023/10/06 02:23:32;;;;;;;;;;;21.00;99.90;;;;;;5009297;28;20403;-56
2023/10/06 02:25:59;;;;;;;;;;;21.00;99.90;;;;;;5011340;28;20003;-56
2023/10/06 02:28:25;;;;;;;;;;;21.00;99.90;;;;;;5009236;28;20804;-58
2023/10/06 02:30:55;;;;;;;;;;;21.00;99.90;;;;;;5009740;28;19929;-58
2023/10/06 02:33:24;;;;;;;;;;;21.00;99.90;;;;;;5007314;28;19944;-56
2023/10/06 02:35:55;;;;;;;;;;;21.00;99.90;;;;;;5007299;28;19937;-57
2023/10/06 02:38:21;;;;;;;;;;;21.00;99.90;;;;;;5008200;28;20381;-57
2023/10/06 02:40:48;;;;;;;;;;;21.00;99.90;;;;;;5011693;28;19934;-57
2023/10/06 02:43:17;;;;;;;;;;;21.00;99.90;;;;;;5002096;28;20008;-56
2023/10/06 02:45:43;;;;;;;;;;;21.00;99.90;;;;;;5019884;28;19929;-61
2023/10/06 02:48:17;;;;;;;;;;;21.00;99.90;;;;;;5007761;28;19929;-57
2023/10/06 02:50:49;;;;;;;;;;;21.00;99.90;;;;;;5008652;28;20012;-56
2023/10/06 02:53:20;;;;;;;;;;;21.00;99.90;;;;;;5008063;28;19956;-56
2023/10/06 02:55:48;;;;;;;;;;;21.00;99.90;;;;;;5010058;28;20645;-56
2023/10/06 02:58:26;;;;;;;;;;;21.00;99.90;;;;;;5005707;28;19937;-56
2023/10/06 03:00:55;;;;;;;;;;;21.00;99.90;;;;;;5009505;28;19925;-56
2023/10/06 03:03:27;;;;;;;;;;;21.00;99.90;;;;;;5001297;28;20023;-56
2023/10/06 03:05:55;;;;;;;;;;;21.00;99.90;;;;;;5016679;28;20034;-57
2023/10/06 03:08:26;;;;;;;;;;;21.00;99.90;;;;;;5005735;28;19951;-56
2023/10/06 03:10:52;;;;;;;;;;;21.00;99.90;;;;;;5009424;28;19979;-56
2023/10/06 03:13:24;;;;;;;;;;;21.00;99.90;;;;;;5005353;28;19929;-55
2023/10/06 03:15:51;;;;;;;;;;;21.00;99.90;;;;;;5010253;28;19930;-58
2023/10/06 03:18:18;;;;;;;;;;;21.00;99.90;;;;;;5007568;28;19933;-56
2023/10/06 03:20:48;;;;;;;;;;;21.00;99.90;;;;;;5010254;28;19933;-56
2023/10/06 03:23:26;;;;;;;;;;;21.00;99.90;;;;;;5009125;28;19929;-57
2023/10/06 03:25:56;;;;;;;;;;;21.00;99.90;;;;;;5011389;28;19925;-55
2023/10/06 03:28:32;;;;;;;;;;;21.00;99.90;;;;;;5002997;28;19940;-56
2023/10/06 03:31:02;;;;;;;;;;;20.90;99.90;;;;;;5016044;28;19929;-55
2023/10/06 03:33:30;;;;;;;;;;;20.90;99.90;;;;;;5007209;28;19933;-57
2023/10/06 03:35:58;;;;;;;;;;;21.00;99.90;;;;;;5008419;28;20277;-57
2023/10/06 03:38:35;;;;;;;;;;;21.00;99.90;;;;;;5008674;28;19956;-57
2023/10/06 03:41:20;;;;;;;;;;;20.90;99.90;;;;;;5009022;28;20399;-56
2023/10/06 03:43:50;;;;;;;;;;;21.00;99.90;;;;;;5008764;28;19975;-56
2023/10/06 03:46:18;;;;;;;;;;;21.00;99.90;;;;;;5008976;28;20012;-57
2023/10/06 03:48:45;;;;;;;;;;;21.00;99.90;;;;;;5007080;28;20477;-55
2023/10/06 03:51:12;;;;;;;;;;;21.00;99.90;;;;;;5008958;28;20773;-56
2023/10/06 03:53:40;;;;;;;;;;;21.00;99.90;;;;;;5003695;28;19940;-57
2023/10/06 03:56:08;;;;;;;;;;;21.00;99.90;;;;;;5017572;28;19952;-60
2023/10/06 03:58:34;;;;;;;;;;;20.90;99.90;;;;;;5007808;28;19925;-53
2023/10/06 04:01:07;;;;;;;;;;;21.00;99.90;;;;;;5007023;28;19951;-59
2023/10/06 04:03:34;;;;;;;;;;;21.00;99.90;;;;;;5007629;28;20009;-61
2023/10/06 04:06:03;;;;;;;;;;;21.00;99.90;;;;;;5010748;28;19925;-61
2023/10/06 04:08:29;;;;;;;;;;;20.90;99.90;;;;;;5008318;28;20264;-59
2023/10/06 04:10:58;;;;;;;;;;;21.00;99.90;;;;;;5011512;28;20051;-58
2023/10/06 04:13:25;;;;;;;;;;;21.00;99.90;;;;;;5001379;28;20411;-57
2023/10/06 04:15:53;;;;;;;;;;;21.00;99.90;;;;;;5019326;28;20400;-56
2023/10/06 04:18:21;;;;;;;;;;;21.00;99.90;;;;;;5013561;28;20352;-56
2023/10/06 04:20:49;;;;;;;;;;;21.00;99.90;;;;;;5010693;28;19944;-57
2023/10/06 04:23:16;;;;;;;;;;;21.00;99.90;;;;;;5013329;28;19929;-55
2023/10/06 04:25:44;;;;;;;;;;;21.00;99.90;;;;;;5011233;28;20022;-55
2023/10/06 04:28:13;;;;;;;;;;;21.00;99.90;;;;;;5013052;28;19933;-56
2023/10/06 04:30:42;;;;;;;;;;;21.00;99.90;;;;;;5012467;28;19937;-55
2023/10/06 04:33:10;;;;;;;;;;;21.00;99.90;;;;;;5013538;28;19964;-56
2023/10/06 04:35:39;;;;;;;;;;;21.00;99.90;;;;;;5010895;28;20572;-56
2023/10/06 04:38:05;;;;;;;;;;;21.00;99.90;;;;;;5005557;28;19934;-56
2023/10/06 04:40:32;;;;;;;;;;;20.90;99.90;;;;;;5022689;28;20035;-55
2023/10/06 04:42:59;;;;;;;;;;;20.90;99.90;;;;;;5013235;28;19933;-56
2023/10/06 04:45:31;;;;;;;;;;;20.90;99.90;;;;;;5013168;28;19934;-56
2023/10/06 04:47:58;;;;;;;;;;;21.00;99.90;;;;;;5012178;28;20300;-55
2023/10/06 04:50:27;;;;;;;;;;;21.00;99.90;;;;;;5009185;28;19925;-56
2023/10/06 04:52:54;;;;;;;;;;;21.00;99.90;;;;;;5009948;28;19929;-57
2023/10/06 04:55:21;;;;;;;;;;;21.00;99.90;;;;;;5011835;28;20269;-58
2023/10/06 04:57:48;;;;;;;;;;;21.00;99.90;;;;;;5009068;28;19936;-59
2023/10/06 05:00:15;;;;;;;;;;;21.00;99.90;;;;;;5009443;28;20655;-61
2023/10/06 05:02:47;;;;;;;;;;;21.00;99.90;;;;;;5001206;28;19943;-57
2023/10/06 05:05:14;;;;;;;;;;;20.90;99.90;;;;;;5015097;28;20018;-56
2023/10/06 05:07:41;;;;;;;;;;;21.00;99.90;;;;;;5006730;28;19936;-55
2023/10/06 05:10:09;;;;;;;;;;;21.00;99.90;;;;;;5003949;28;19929;-55
2023/10/06 05:12:37;;;;;;;;;;;21.00;99.90;;;;;;5007501;28;20419;-61
2023/10/06 05:15:07;;;;;;;;;;;20.90;99.90;;;;;;5001332;28;19929;-61
2023/10/06 05:17:34;;;;;;;;;;;20.90;99.90;;;;;;4990393;28;19933;-62
2023/10/06 05:20:02;;;;;;;;;;;20.90;99.90;;;;;;4995808;28;20018;-62
2023/10/06 05:22:28;;;;;;;;;;;21.00;99.90;;;;;;5001739;28;20404;-65
2023/10/06 05:24:55;;;;;;;;;;;21.00;99.90;;;;;;5009709;28;19929;-63
2023/10/06 05:27:22;;;;;;;;;;;21.00;99.90;;;;;;5000881;28;19925;-63
2023/10/06 05:29:50;;;;;;;;;;;21.00;99.90;;;;;;5010470;28;19937;-64
2023/10/06 05:32:17;;;;;;;;;;;21.00;99.90;;;;;;5001541;28;20400;-65
2023/10/06 05:34:43;;;;;;;;;;;21.00;99.90;;;;;;5007660;28;20781;-61
2023/10/06 05:37:12;;;;;;;;;;;21.00;99.90;;;;;;5005777;28;19933;-56
2023/10/06 05:39:40;;;;;;;;;;;21.00;99.90;;;;;;5007404;28;20181;-58
2023/10/06 05:42:08;;;;;;;;;;;20.90;99.90;;;;;;5004953;28;19933;-61
2023/10/06 05:44:36;;;;;;;;;;;20.70;99.90;;;;;;5003196;28;20398;-61
2023/10/06 05:47:04;;;;;;;;;;;20.40;99.90;;;;;;5008569;28;20346;-61
2023/10/06 05:49:32;;;;;;;;;;;20.00;99.90;;;;;;5008858;28;19936;-59
2023/10/06 05:51:59;;;;;;;;;;;19.60;99.90;;;;;;5010246;28;19929;-61
2023/10/06 05:54:29;;;;;;;;;;;19.30;99.90;;;;;;5010734;28;19929;-61
2023/10/06 05:56:56;;;;;;;;;;;19.10;99.90;;;;;;5004300;28;19930;-57
2023/10/06 05:59:23;;;;;;;;;;;18.90;99.90;;;;;;5010879;28;19933;-67
2023/10/06 06:01:56;;;;;;;;;;;19.00;99.90;;;;;;5008862;28;19933;-58
2023/10/06 06:04:27;;;;;;;;;;;19.10;99.90;;;;;;5008807;28;20307;-63
2023/10/06 06:06:56;;;;;;;;;;;19.30;99.90;;;;;;5006840;28;20019;-60
2023/10/06 06:09:23;;;;;;;;;;;19.50;99.90;;;;;;5009785;28;20449;-60
2023/10/06 06:11:51;;;;;;;;;;;19.70;99.90;;;;;;5004374;28;19929;-60
2023/10/06 06:14:21;;;;;;;;;;;19.90;99.90;;;;;;5008366;28;19964;-60
2023/10/06 06:16:48;;;;;;;;;;;20.00;99.90;;;;;;5010243;28;19941;-63
2023/10/06 06:19:15;;;;;;;;;;;20.10;99.90;;;;;;5010274;28;19960;-64
2023/10/06 06:21:42;;;;;;;;;;;20.20;99.90;;;;;;5010354;28;19941;-66
2023/10/06 06:24:08;;;;;;;;;;;20.30;99.90;;;;;;5009332;28;20022;-64
2023/10/06 06:26:36;;;;;;;;;;;20.30;99.90;;;;;;5011886;28;19932;-67
2023/10/06 06:29:04;;;;;;;;;;;20.40;99.90;;;;;;5012826;28;20032;-63
2023/10/06 06:31:32;;;;;;;;;;;20.40;99.90;;;;;;5010359;28;20371;-57
2023/10/06 06:33:59;;;;;;;;;;;20.40;99.90;;;;;;5010708;28;20833;-57
2023/10/06 06:36:26;;;;;;;;;;;20.50;99.90;;;;;;5012791;28;20428;-57
2023/10/06 06:38:53;;;;;;;;;;;20.50;99.90;;;;;;5007420;28;20478;-57
2023/10/06 06:41:21;;;;;;;;;;;20.50;99.90;;;;;;5010343;28;20010;-57
2023/10/06 06:43:48;;;;;;;;;;;20.50;99.90;;;;;;5007930;28;19980;-58
2023/10/06 06:46:17;;;;;;;;;;;20.50;99.90;;;;;;5011036;28;20012;-57
2023/10/06 06:48:46;;;;;;;;;;;20.60;99.90;;;;;;5009056;28;19925;-57
2023/10/06 06:51:13;;;;;;;;;;;20.60;99.90;;;;;;5010163;28;20425;-57
2023/10/06 06:53:40;;;;;;;;;;;20.60;99.90;;;;;;5006943;28;19933;-56
2023/10/06 06:56:10;;;;;;;;;;;20.60;99.90;;;;;;5010762;28;19932;-57
2023/10/06 06:58:37;;;;;;;;;;;20.60;99.90;;;;;;5004590;28;20396;-57
2023/10/06 07:01:06;;;;;;;;;;;20.60;99.90;;;;;;5015252;28;19933;-58
2023/10/06 07:03:33;;;;;;;;;;;20.60;99.90;;;;;;5009064;28;19936;-58
2023/10/06 07:06:00;;;;;;;;;;;20.60;99.90;;;;;;5006697;28;21273;-58
2023/10/06 07:08:27;;;;;;;;;;;20.70;99.90;;;;;;5011331;28;19933;-57
2023/10/06 07:10:54;;;;;;;;;;;20.60;99.90;;;;;;5008434;28;19929;-57
2023/10/06 07:13:22;;;;;;;;;;;20.60;99.90;;;;;;5009679;28;19933;-58
2023/10/06 07:15:49;;;;;;;;;;;20.60;99.90;;;;;;5008254;28;19985;-58
2023/10/06 07:18:16;;;;;;;;;;;20.60;99.90;;;;;;5009591;28;19943;-57
2023/10/06 07:20:45;;;;;;;;;;;20.60;99.90;;;;;;5007990;28;19964;-57
2023/10/06 07:23:12;;;;;;;;;;;20.60;99.90;;;;;;5008448;28;19936;-58
2023/10/06 07:25:39;;;;;;;;;;;20.60;99.90;;;;;;5011309;28;19933;-60
2023/10/06 07:28:07;;;;;;;;;;;20.60;99.90;;;;;;5000686;28;20361;-60
2023/10/06 07:30:35;;;;;;;;;;;20.60;99.90;;;;;;5022058;28;19929;-60
2023/10/06 07:33:02;;;;;;;;;;;20.60;99.90;;;;;;5009045;28;19978;-59
2023/10/06 07:35:37;;;;;;;;;;;20.70;99.90;;;;;;5008348;28;19928;-60
2023/10/06 07:38:05;;;;;;;;;;;20.60;99.90;;;;;;5009289;28;20519;-57
2023/10/06 07:40:32;;;;;;;;;;;20.70;99.90;;;;;;5008854;28;19929;-57
2023/10/06 07:42:59;;;;;;;;;;;20.70;99.90;;;;;;5008878;28;20351;-58
2023/10/06 07:45:26;;;;;;;;;;;20.70;99.90;;;;;;5010223;28;19987;-58
2023/10/06 07:47:54;;;;;;;;;;;20.70;99.90;;;;;;5007814;28;19976;-57
2023/10/06 07:50:20;;;;;;;;;;;20.70;99.90;;;;;;5009031;28;19930;-58
2023/10/06 07:52:47;;;;;;;;;;;20.70;99.90;;;;;;5007051;28;19929;-57
2023/10/06 07:55:21;;;;;;;;;;;20.70;99.90;;;;;;5009916;28;19936;-57
2023/10/06 07:57:47;;;;;;;;;;;20.70;99.90;;;;;;5006597;28;19933;-57
2023/10/06 08:00:18;;;;;;;;;;;20.70;99.90;;;;;;5009464;28;19936;-57
2023/10/06 08:02:47;;;;;;;;;;;20.70;99.90;;;;;;5006594;28;20285;-56
2023/10/06 08:05:17;;;;;;;;;;;20.70;99.90;;;;;;5014279;28;19929;-57
2023/10/06 08:07:44;;;;;;;;;;;20.70;99.90;;;;;;5008687;28;19929;-57
2023/10/06 08:10:13;;;;;;;;;;;20.70;99.90;;;;;;5005294;28;20305;-57
2023/10/06 08:12:43;;;;;;;;;;;20.70;99.90;;;;;;5010363;28;20023;-57
2023/10/06 08:15:10;;;;;;;;;;;20.70;99.90;;;;;;5006885;28;19983;-59
2023/10/06 08:17:37;;;;;;;;;;;20.70;99.90;;;;;;5011034;28;19925;-57
2023/10/06 08:20:05;;;;;;;;;;;20.70;99.90;;;;;;5007313;28;19932;-57
2023/10/06 08:22:33;;;;;;;;;;;20.70;99.90;;;;;;5008667;28;20399;-59
2023/10/06 08:25:00;;;;;;;;;;;20.70;99.90;;;;;;5009876;28;20016;-59
2023/10/06 08:27:27;;;;;;;;;;;20.70;99.90;;;;;;5009524;28;19936;-58
2023/10/06 08:29:55;;;;;;;;;;;20.70;99.90;;;;;;5008246;28;19929;-59
2023/10/06 08:32:22;;;;;;;;;;;20.70;99.90;;;;;;5009484;28;19999;-58
2023/10/06 08:34:48;;;;;;;;;;;20.70;99.90;;;;;;5009280;28;19983;-58
2023/10/06 08:37:15;;;;;;;;;;;20.70;99.90;;;;;;5007713;28;19932;-58
2023/10/06 08:39:44;;;;;;;;;;;20.70;99.90;;;;;;5010553;28;19929;-58
2023/10/06 08:42:11;;;;;;;;;;;20.70;99.90;;;;;;5008546;28;19961;-56
2023/10/06 08:44:38;;;;;;;;;;;20.70;99.90;;;;;;5008588;28;20507;-58
2023/10/06 08:47:09;;;;;;;;;;;20.70;99.90;;;;;;5008639;28;19937;-58
2023/10/06 08:49:36;;;;;;;;;;;20.70;99.90;;;;;;5008393;28;19925;-60
2023/10/06 08:52:04;;;;;;;;;;;20.70;99.90;;;;;;5007730;28;19925;-58
2023/10/06 08:54:31;;;;;;;;;;;20.70;99.90;;;;;;5008885;28;19929;-57
2023/10/06 08:56:58;;;;;;;;;;;20.70;99.90;;;;;;5007160;28;19936;-58
2023/10/06 08:59:24;;;;;;;;;;;20.70;99.90;;;;;;5009777;28;19930;-59
2023/10/06 09:01:51;;;;;;;;;;;20.70;99.90;;;;;;5010613;28;20443;-58
2023/10/06 09:04:21;;;;;;;;;;;20.70;99.90;;;;;;5012493;28;20329;-58
2023/10/06 09:07:06;;;;;;;;;;;20.70;99.90;;;;;;5012574;28;19965;-59
2023/10/06 09:09:33;;;;;;;;;;;20.70;99.90;;;;;;5013082;28;19936;-59
2023/10/06 09:12:00;;;;;;;;;;;20.70;99.90;;;;;;5011011;28;20286;-58
2023/10/06 09:14:28;;;;;;;;;;;20.70;99.90;;;;;;5010243;28;19929;-58
2023/10/06 09:16:57;;;;;;;;;;;20.80;99.90;;;;;;5011919;28;19929;-58
2023/10/06 09:19:25;;;;;;;;;;;20.70;99.90;;;;;;5012193;28;19930;-59
2023/10/06 09:22:00;;;;;;;;;;;20.80;99.90;;;;;;5013657;28;19934;-59
2023/10/06 09:24:27;;;;;;;;;;;20.80;99.90;;;;;;5012654;28;19991;-59
2023/10/06 09:26:55;;;;;;;;;;;20.80;99.90;;;;;;5013632;28;20330;-59
2023/10/06 09:29:30;;;;;;;;;;;20.80;99.90;;;;;;5011735;28;19937;-59
2023/10/06 09:31:57;;;;;;;;;;;20.80;99.90;;;;;;5010010;28;20009;-60
2023/10/06 09:34:25;;;;;;;;;;;20.80;99.90;;;;;;5011039;28;19930;-58
2023/10/06 09:36:52;;;;;;;;;;;20.80;99.90;;;;;;5011875;28;19941;-59
2023/10/06 09:39:26;;;;;;;;;;;20.80;99.90;;;;;;5010827;28;19929;-59
2023/10/06 09:41:54;;;;;;;;;;;20.80;99.90;;;;;;5011829;28;19932;-58
2023/10/06 09:44:22;;;;;;;;;;;20.80;99.90;;;;;;5011523;28;20380;-60
2023/10/06 09:46:52;;;;;;;;;;;20.80;99.90;;;;;;5010773;28;19937;-59
2023/10/06 09:49:19;;;;;;;;;;;20.80;99.90;;;;;;5009593;28;20030;-58
2023/10/06 09:51:48;;;;;;;;;;;20.80;99.90;;;;;;5011518;28;20348;-59
2023/10/06 09:54:15;;;;;;;;;;;20.70;99.90;;;;;;5009855;28;19936;-58
2023/10/06 09:56:42;;;;;;;;;;;20.70;99.90;;;;;;5011126;28;19941;-58
2023/10/06 09:59:12;;;;;;;;;;;20.70;99.90;;;;;;5009033;28;19929;-58
2023/10/06 10:01:42;;;;;;;;;;;20.70;99.90;;;;;;5013758;28;19939;-59
2023/10/06 10:04:11;;;;;;;;;;;20.70;99.90;;;;;;5009798;28;20012;-60
2023/10/06 10:06:43;;;;;;;;;;;20.70;99.90;;;;;;5011517;28;19930;-60
2023/10/06 10:09:15;;;;;;;;;;;20.70;99.90;;;;;;5010192;28;19929;-58
2023/10/06 10:11:45;;;;;;;;;;;20.70;99.90;;;;;;5012971;28;19936;-59
2023/10/06 10:14:26;;;;;;;;;;;20.70;99.90;;;;;;5010161;28;19933;-58
2023/10/06 10:17:02;;;;;;;;;;;20.70;99.90;;;;;;5011733;28;19930;-58
2023/10/06 10:19:30;;;;;;;;;;;20.70;99.90;;;;;;5011764;28;20060;-59
2023/10/06 10:21:58;;;;;;;;;;;20.70;99.90;;;;;;5010436;28;19930;-59
2023/10/06 10:24:26;;;;;;;;;;;20.70;99.90;;;;;;5012721;28;19935;-59
2023/10/06 10:26:54;;;;;;;;;;;20.70;99.90;;;;;;5011363;28;19929;-59
2023/10/06 10:29:33;;;;;;;;;;;20.70;99.90;;;;;;5010371;28;20452;-59
2023/10/06 10:32:03;;;;;;;;;;;20.70;99.90;;;;;;5011673;28;20921;-58
2023/10/06 10:34:33;;;;;;;;;;;20.70;99.90;;;;;;5011484;28;20316;-58
2023/10/06 10:37:16;;;;;;;;;;;20.70;99.90;;;;;;5011257;28;19936;-58
2023/10/06 10:39:47;;;;;;;;;;;20.70;99.90;;;;;;5012265;28;20046;-59
2023/10/06 10:42:17;;;;;;;;;;;20.70;99.90;;;;;;5009511;28;20799;-60
2023/10/06 10:44:44;;;;;;;;;;;20.70;99.90;;;;;;5013542;28;19936;-58
2023/10/06 10:47:10;;;;;;;;;;;20.70;99.90;;;;;;5010344;28;19929;-57
2023/10/06 10:49:38;;;;;;;;;;;20.70;99.90;;;;;;5010315;28;19929;-58
2023/10/06 10:52:07;;;;;;;;;;;20.70;99.90;;;;;;5009293;28;19929;-58
2023/10/06 10:54:34;;;;;;;;;;;20.70;99.90;;;;;;5009018;28;19936;-61
2023/10/06 10:57:09;;;;;;;;;;;20.70;99.90;;;;;;5010097;28;20560;-60
2023/10/06 10:59:56;;;;;;;;;;;20.70;99.90;;;;;;5009512;28;20028;-60
2023/10/06 11:02:23;;;;;;;;;;;20.70;99.90;;;;;;5008794;28;21589;-60
2023/10/06 11:04:50;;;;;;;;;;;20.70;99.90;;;;;;5010435;28;19936;-59
2023/10/06 11:07:18;;;;;;;;;;;20.70;99.90;;;;;;5008434;28;19936;-58
2023/10/06 11:09:48;;;;;;;;;;;20.70;99.90;;;;;;5010562;28;19929;-59
2023/10/06 11:12:24;;;;;;;;;;;20.70;99.90;;;;;;5007985;28;19930;-58
2023/10/06 11:14:51;;;;;;;;;;;20.70;99.90;;;;;;5010063;28;20388;-59
2023/10/06 11:17:21;;;;;;;;;;;20.70;99.90;;;;;;5007714;28;19933;-58
2023/10/06 11:19:48;;;;;;;;;;;20.70;99.90;;;;;;5011433;28;20611;-58
2023/10/06 11:22:19;;;;;;;;;;;20.70;99.90;;;;;;5007935;28;19929;-59
2023/10/06 11:24:46;;;;;;;;;;;20.70;99.90;;;;;;5009470;28;19933;-60
2023/10/06 11:27:16;;;;;;;;;;;20.70;99.90;;;;;;5006879;28;19929;-59
2023/10/06 11:29:46;;;;;;;;;;;20.70;99.90;;;;;;5010118;28;19937;-58
2023/10/06 11:32:13;;;;;;;;;;;20.70;99.90;;;;;;5007409;28;19975;-59
2023/10/06 11:34:42;;;;;;;;;;;20.70;99.90;;;;;;5009674;28;19972;-57
2023/10/06 11:37:09;;;;;;;;;;;20.70;99.90;;;;;;5007265;28;19929;-58
2023/10/06 11:39:36;;;;;;;;;;;20.70;99.90;;;;;;5010066;28;19940;-59
2023/10/06 11:42:24;;;;;;;;;;;20.70;99.90;;;;;;5008444;28;19929;-60
2023/10/06 11:44:53;;;;;;;;;;;20.70;99.90;;;;;;5006886;28;19929;-58
2023/10/06 11:47:21;;;;;;;;;;;20.70;99.90;;;;;;5009166;28;19996;-58
2023/10/06 11:49:54;;;;;;;;;;;20.70;99.90;;;;;;5008115;28;20010;-57
2023/10/06 11:52:20;;;;;;;;;;;20.70;99.90;;;;;;5009530;28;19936;-59
2023/10/06 11:54:47;;;;;;;;;;;20.70;99.90;;;;;;5015417;28;19976;-58
2023/10/06 11:57:15;;;;;;;;;;;20.70;99.90;;;;;;5006145;28;19983;-60
2023/10/06 11:59:48;;;;;;;;;;;20.70;99.90;;;;;;5009338;28;19929;-59
2023/10/06 12:02:16;;;;;;;;;;;20.70;99.90;;;;;;5007469;28;19930;-58
2023/10/06 12:04:43;;;;;;;;;;;20.70;99.90;;;;;;5007861;28;19930;-60
2023/10/06 12:07:20;;;;;;;;;;;20.70;99.90;;;;;;5006857;28;19929;-57
2023/10/06 12:09:48;;;;;;;;;;;20.70;99.90;;;;;;5010559;28;19933;-59
2023/10/06 12:12:16;;;;;;;;;;;20.70;99.90;;;;;;5007988;28;19936;-58
2023/10/06 12:14:43;;;;;;;;;;;20.70;99.90;;;;;;5009596;28;19929;-59
2023/10/06 12:17:11;;;;;;;;;;;20.70;99.90;;;;;;5008389;28;20319;-57
2023/10/06 12:19:42;;;;;;;;;;;20.70;99.90;;;;;;5009971;28;19936;-59
2023/10/06 12:22:08;;;;;;;;;;;20.70;99.90;;;;;;5009590;28;19956;-58
2023/10/06 12:24:35;;;;;;;;;;;20.70;99.90;;;;;;5009143;28;20019;-58
2023/10/06 12:27:02;;;;;;;;;;;20.70;99.90;;;;;;5007752;28;20586;-59
2023/10/06 12:29:31;;;;;;;;;;;20.70;99.90;;;;;;5008923;28;19968;-58
2023/10/06 12:31:58;;;;;;;;;;;20.70;99.90;;;;;;5009448;28;20019;-58
2023/10/06 12:34:25;;;;;;;;;;;20.70;99.90;;;;;;5007991;28;19936;-59
2023/10/06 12:36:53;;;;;;;;;;;20.70;99.90;;;;;;5008763;28;20414;-58
2023/10/06 12:39:33;;;;;;;;;;;20.70;99.90;;;;;;5011744;28;20281;-59
2023/10/06 12:41:59;;;;;;;;;;;20.70;99.90;;;;;;5012258;28;19929;-60
2023/10/06 12:44:27;;;;;;;;;;;20.70;99.90;;;;;;5010974;28;20036;-58
2023/10/06 12:46:55;;;;;;;;;;;20.70;99.90;;;;;;5012375;28;19984;-57
2023/10/06 12:49:23;;;;;;;;;;;20.70;99.90;;;;;;5011239;28;19933;-58
2023/10/06 12:51:49;;;;;;;;;;;20.70;99.90;;;;;;5012989;28;19935;-58
2023/10/06 12:54:17;;;;;;;;;;;20.70;99.90;;;;;;5012775;28;19929;-58
2023/10/06 12:56:49;;;;;;;;;;;20.70;99.90;;;;;;5013057;28;19987;-59
2023/10/06 12:59:15;;;;;;;;;;;20.70;99.90;;;;;;5009861;28;19976;-57
2023/10/06 13:01:42;;;;;;;;;;;20.70;99.90;;;;;;5012579;28;20325;-58
2023/10/06 13:04:13;;;;;;;;;;;20.70;99.90;;;;;;5013055;28;19936;-58
2023/10/06 13:06:39;;;;;;;;;;;20.60;99.90;;;;;;5014145;28;19929;-57
2023/10/06 13:09:08;;;;;;;;;;;20.70;99.90;;;;;;5011780;28;19925;-58
2023/10/06 13:11:36;;;;;;;;;;;20.70;99.90;;;;;;5013184;28;19929;-59
2023/10/06 13:14:03;;;;;;;;;;;20.70;99.90;;;;;;5011501;28;19929;-57
2023/10/06 13:16:30;;;;;;;;;;;20.70;99.90;;;;;;5010630;28;19937;-58
2023/10/06 13:18:57;;;;;;;;;;;20.70;99.90;;;;;;5011161;28;19933;-58
2023/10/06 13:21:24;;;;;;;;;;;20.70;99.90;;;;;;5010158;28;20392;-58
2023/10/06 13:23:50;;;;;;;;;;;20.70;99.90;;;;;;5013523;28;19930;-58
2023/10/06 13:26:19;;;;;;;;;;;20.70;99.90;;;;;;5012118;28;19929;-57
2023/10/06 13:28:47;;;;;;;;;;;20.70;99.90;;;;;;5012730;28;19929;-57
2023/10/06 13:31:14;;;;;;;;;;;20.70;99.90;;;;;;5012742;28;19984;-59
2023/10/06 13:33:41;;;;;;;;;;;20.70;99.90;;;;;;5010403;28;20012;-57
2023/10/06 13:36:08;;;;;;;;;;;20.70;99.90;;;;;;5012796;28;19929;-58
2023/10/06 13:38:35;;;;;;;;;;;20.70;99.90;;;;;;5006377;28;19929;-59
2023/10/06 13:41:03;;;;;;;;;;;20.70;99.90;;;;;;5022072;28;19936;-61
2023/10/06 13:43:29;;;;;;;;;;;20.70;99.90;;;;;;5009245;28;19936;-58
2023/10/06 13:45:59;;;;;;;;;;;20.70;99.90;;;;;;5008250;28;19929;-57
2023/10/06 13:48:26;;;;;;;;;;;20.70;99.90;;;;;;5008906;28;19929;-57
2023/10/06 13:50:57;;;;;;;;;;;20.70;99.90;;;;;;5012834;28;19936;-58
2023/10/06 13:53:25;;;;;;;;;;;20.70;99.90;;;;;;5009300;28;19945;-58
2023/10/06 13:55:51;;;;;;;;;;;20.70;99.90;;;;;;5010677;28;20691;-58
2023/10/06 13:58:20;;;;;;;;;;;20.70;99.90;;;;;;5011167;28;20519;-57
2023/10/06 14:00:47;;;;;;;;;;;20.70;99.90;;;;;;5010694;28;20454;-58
2023/10/06 14:03:15;;;;;;;;;;;20.70;99.90;;;;;;5012083;28;19939;-58
2023/10/06 14:05:42;;;;;;;;;;;20.70;99.90;;;;;;5009417;28;19964;-58
2023/10/06 14:08:09;;;;;;;;;;;20.70;99.90;;;;;;5012768;28;19952;-59
2023/10/06 14:10:37;;;;;;;;;;;20.70;99.90;;;;;;5009797;28;19929;-59
2023/10/06 14:13:08;;;;;;;;;;;20.70;99.90;;;;;;5008700;28;19968;-60
2023/10/06 14:15:41;;;;;;;;;;;20.70;99.90;;;;;;5009375;28;20355;-60
2023/10/06 14:18:10;;;;;;;;;;;20.70;99.90;;;;;;5003557;28;19936;-58
2023/10/06 14:20:39;;;;;;;;;;;20.70;99.90;;;;;;5019900;28;19925;-59
2023/10/06 14:23:09;;;;;;;;;;;20.70;99.90;;;;;;5011102;28;19960;-60
2023/10/06 14:25:36;;;;;;;;;;;20.70;99.90;;;;;;5009733;28;20052;-59